sensor_id;sensor_type;location;lat;lon;timestamp;P1;durP1;ratioP1;P2;durP2;ratioP2
83127;SDS011;73148;50.988;11.034;2023-11-19T00:00:15;31.30;;;19.42;;
83127;SDS011;73148;50.988;11.034;2023-11-19T00:02:41;33.53;;;20.27;;
83127;SDS011;73148;50.988;11.034;2023-11-19T00:05:07;31.13;;;19.27;;
83127;SDS011;73148;50.988;11.034;2023-11-19T00:07:37;31.58;;;19.13;;
83127;SDS011;73148;50.988;11.034;2023-11-19T00:10:06;31.20;;;18.45;;
83127;SDS011;73148;50.988;11.034;2023-11-19T00:12:34;32.20;;;18.80;;
83127;SDS011;73148;50.988;11.034;2023-11-19T00:15:00;31.50;;;18.40;;
83127;SDS011;73148;50.988;11.034;2023-11-19T00:17:25;27.85;;;18.17;;
83127;SDS011;73148;50.988;11.034;2023-11-19T00:19:52;29.70;;;17.95;;
83127;SDS011;73148;50.988;11.034;2023-11-19T00:22:17;29.95;;;18.38;;
83127;SDS011;73148;50.988;11.034;2023-11-19T00:24:44;30.17;;;17.87;;
83127;SDS011;73148;50.988;11.034;2023-11-19T00:27:09;29.80;;;18.10;;
83127;SDS011;73148;50.988;11.034;2023-11-19T00:29:35;28.35;;;16.33;;
83127;SDS011;73148;50.988;11.034;2023-11-19T00:32:01;28.67;;;17.20;;
83127;SDS011;73148;50.988;11.034;2023-11-19T00:34:27;27.15;;;16.75;;
83127;SDS011;73148;50.988;11.034;2023-11-19T00:36:52;29.00;;;17.40;;
83127;SDS011;73148;50.988;11.034;2023-11-19T00:39:17;28.50;;;17.33;;
83127;SDS011;73148;50.988;11.034;2023-11-19T00:41:44;26.60;;;17.30;;
83127;SDS011;73148;50.988;11.034;2023-11-19T00:44:11;26.92;;;16.23;;
83127;SDS011;73148;50.988;11.034;2023-11-19T00:46:36;30.38;;;17.20;;
83127;SDS011;73148;50.988;11.034;2023-11-19T00:49:01;27.80;;;16.90;;
83127;SDS011;73148;50.988;11.034;2023-11-19T00:51:27;27.35;;;15.82;;
83127;SDS011;73148;50.988;11.034;2023-11-19T00:53:53;26.38;;;16.42;;
83127;SDS011;73148;50.988;11.034;2023-11-19T00:56:18;28.87;;;16.60;;
83127;SDS011;73148;50.988;11.034;2023-11-19T00:58:45;28.60;;;17.50;;
83127;SDS011;73148;50.988;11.034;2023-11-19T01:01:11;24.63;;;14.93;;
83127;SDS011;73148;50.988;11.034;2023-11-19T01:03:36;26.90;;;15.82;;
83127;SDS011;73148;50.988;11.034;2023-11-19T01:06:02;25.08;;;15.38;;
83127;SDS011;73148;50.988;11.034;2023-11-19T01:08:28;27.67;;;16.40;;
83127;SDS011;73148;50.988;11.034;2023-11-19T01:10:53;27.80;;;15.88;;
83127;SDS011;73148;50.988;11.034;2023-11-19T01:13:18;26.60;;;15.87;;
83127;SDS011;73148;50.988;11.034;2023-11-19T01:15:45;25.43;;;15.53;;
83127;SDS011;73148;50.988;11.034;2023-11-19T01:18:12;25.48;;;17.02;;
83127;SDS011;73148;50.988;11.034;2023-11-19T01:20:37;25.85;;;15.32;;
83127;SDS011;73148;50.988;11.034;2023-11-19T01:23:03;25.75;;;15.48;;
83127;SDS011;73148;50.988;11.034;2023-11-19T01:25:29;26.65;;;15.68;;
83127;SDS011;73148;50.988;11.034;2023-11-19T01:27:54;26.67;;;15.98;;
83127;SDS011;73148;50.988;11.034;2023-11-19T01:30:22;28.98;;;17.38;;
83127;SDS011;73148;50.988;11.034;2023-11-19T01:32:49;27.65;;;15.43;;
83127;SDS011;73148;50.988;11.034;2023-11-19T01:35:14;28.80;;;16.52;;
83127;SDS011;73148;50.988;11.034;2023-11-19T01:37:40;28.13;;;16.30;;
83127;SDS011;73148;50.988;11.034;2023-11-19T01:40:06;26.75;;;15.18;;
83127;SDS011;73148;50.988;11.034;2023-11-19T01:42:35;25.95;;;15.73;;
83127;SDS011;73148;50.988;11.034;2023-11-19T01:45:01;26.30;;;15.65;;
83127;SDS011;73148;50.988;11.034;2023-11-19T01:47:28;26.75;;;15.60;;
83127;SDS011;73148;50.988;11.034;2023-11-19T01:49:56;27.10;;;16.25;;
83127;SDS011;73148;50.988;11.034;2023-11-19T01:52:22;26.63;;;16.08;;
83127;SDS011;73148;50.988;11.034;2023-11-19T01:54:48;23.63;;;15.65;;
83127;SDS011;73148;50.988;11.034;2023-11-19T01:57:15;26.05;;;16.17;;
83127;SDS011;73148;50.988;11.034;2023-11-19T01:59:40;25.77;;;15.27;;
83127;SDS011;73148;50.988;11.034;2023-11-19T02:02:07;26.15;;;15.32;;
83127;SDS011;73148;50.988;11.034;2023-11-19T02:04:32;25.67;;;15.57;;
83127;SDS011;73148;50.988;11.034;2023-11-19T02:07:00;25.25;;;15.13;;
83127;SDS011;73148;50.988;11.034;2023-11-19T02:09:26;26.48;;;15.52;;
83127;SDS011;73148;50.988;11.034;2023-11-19T02:11:52;25.73;;;15.57;;
83127;SDS011;73148;50.988;11.034;2023-11-19T02:14:18;25.85;;;15.85;;
83127;SDS011;73148;50.988;11.034;2023-11-19T02:16:43;24.63;;;15.73;;
83127;SDS011;73148;50.988;11.034;2023-11-19T02:19:08;27.10;;;16.65;;
83127;SDS011;73148;50.988;11.034;2023-11-19T02:21:35;27.00;;;15.50;;
83127;SDS011;73148;50.988;11.034;2023-11-19T02:24:02;25.48;;;15.30;;
83127;SDS011;73148;50.988;11.034;2023-11-19T02:26:32;25.15;;;15.30;;
83127;SDS011;73148;50.988;11.034;2023-11-19T02:31:31;22.88;;;13.90;;
83127;SDS011;73148;50.988;11.034;2023-11-19T02:33:57;22.42;;;13.10;;
83127;SDS011;73148;50.988;11.034;2023-11-19T02:36:22;23.35;;;13.48;;
83127;SDS011;73148;50.988;11.034;2023-11-19T02:38:48;23.13;;;13.52;;
83127;SDS011;73148;50.988;11.034;2023-11-19T02:41:13;24.80;;;14.50;;
83127;SDS011;73148;50.988;11.034;2023-11-19T02:43:39;22.02;;;13.32;;
83127;SDS011;73148;50.988;11.034;2023-11-19T02:46:06;24.08;;;13.25;;
83127;SDS011;73148;50.988;11.034;2023-11-19T02:48:32;21.55;;;13.68;;
83127;SDS011;73148;50.988;11.034;2023-11-19T02:50:57;23.65;;;14.23;;
83127;SDS011;73148;50.988;11.034;2023-11-19T02:53:23;23.88;;;14.65;;
83127;SDS011;73148;50.988;11.034;2023-11-19T02:55:49;20.73;;;12.95;;
83127;SDS011;73148;50.988;11.034;2023-11-19T02:58:15;20.83;;;12.95;;
83127;SDS011;73148;50.988;11.034;2023-11-19T03:00:48;20.25;;;13.35;;
83127;SDS011;73148;50.988;11.034;2023-11-19T03:03:23;20.83;;;12.38;;
83127;SDS011;73148;50.988;11.034;2023-11-19T03:05:53;21.67;;;13.25;;
83127;SDS011;73148;50.988;11.034;2023-11-19T03:08:19;21.05;;;13.40;;
83127;SDS011;73148;50.988;11.034;2023-11-19T03:10:44;22.33;;;12.73;;
83127;SDS011;73148;50.988;11.034;2023-11-19T03:13:11;20.67;;;12.32;;
83127;SDS011;73148;50.988;11.034;2023-11-19T03:15:40;19.92;;;12.18;;
83127;SDS011;73148;50.988;11.034;2023-11-19T03:18:06;21.98;;;13.05;;
83127;SDS011;73148;50.988;11.034;2023-11-19T03:20:32;20.15;;;12.60;;
83127;SDS011;73148;50.988;11.034;2023-11-19T03:22:58;19.25;;;11.23;;
83127;SDS011;73148;50.988;11.034;2023-11-19T03:25:25;19.77;;;11.80;;
83127;SDS011;73148;50.988;11.034;2023-11-19T03:28:01;19.10;;;11.35;;
83127;SDS011;73148;50.988;11.034;2023-11-19T03:30:30;20.00;;;12.07;;
83127;SDS011;73148;50.988;11.034;2023-11-19T03:35:21;19.20;;;11.17;;
83127;SDS011;73148;50.988;11.034;2023-11-19T03:37:48;20.17;;;12.20;;
83127;SDS011;73148;50.988;11.034;2023-11-19T03:40:13;19.08;;;11.98;;
83127;SDS011;73148;50.988;11.034;2023-11-19T03:42:39;19.67;;;11.80;;
83127;SDS011;73148;50.988;11.034;2023-11-19T03:45:05;19.60;;;12.02;;
83127;SDS011;73148;50.988;11.034;2023-11-19T03:47:33;19.05;;;11.15;;
83127;SDS011;73148;50.988;11.034;2023-11-19T03:49:58;20.92;;;12.57;;
83127;SDS011;73148;50.988;11.034;2023-11-19T03:52:24;19.23;;;12.30;;
83127;SDS011;73148;50.988;11.034;2023-11-19T03:54:50;18.00;;;10.77;;
83127;SDS011;73148;50.988;11.034;2023-11-19T03:57:16;18.63;;;11.05;;
83127;SDS011;73148;50.988;11.034;2023-11-19T03:59:41;19.70;;;11.50;;
83127;SDS011;73148;50.988;11.034;2023-11-19T04:02:07;17.67;;;10.85;;
83127;SDS011;73148;50.988;11.034;2023-11-19T04:04:32;18.30;;;11.00;;
83127;SDS011;73148;50.988;11.034;2023-11-19T04:06:59;18.80;;;10.65;;
83127;SDS011;73148;50.988;11.034;2023-11-19T04:09:25;18.70;;;10.98;;
83127;SDS011;73148;50.988;11.034;2023-11-19T04:11:52;19.77;;;11.55;;
83127;SDS011;73148;50.988;11.034;2023-11-19T04:14:17;19.00;;;11.10;;
83127;SDS011;73148;50.988;11.034;2023-11-19T04:16:43;19.33;;;10.77;;
83127;SDS011;73148;50.988;11.034;2023-11-19T04:19:08;17.80;;;10.45;;
83127;SDS011;73148;50.988;11.034;2023-11-19T04:21:34;18.63;;;11.23;;
83127;SDS011;73148;50.988;11.034;2023-11-19T04:23:59;16.73;;;10.55;;
83127;SDS011;73148;50.988;11.034;2023-11-19T04:26:25;18.65;;;11.40;;
83127;SDS011;73148;50.988;11.034;2023-11-19T04:28:52;19.50;;;11.10;;
83127;SDS011;73148;50.988;11.034;2023-11-19T04:31:17;17.00;;;10.65;;
83127;SDS011;73148;50.988;11.034;2023-11-19T04:33:43;18.63;;;10.55;;
83127;SDS011;73148;50.988;11.034;2023-11-19T04:36:09;17.63;;;10.88;;
83127;SDS011;73148;50.988;11.034;2023-11-19T04:38:35;16.25;;;10.32;;
83127;SDS011;73148;50.988;11.034;2023-11-19T04:41:00;18.25;;;10.45;;
83127;SDS011;73148;50.988;11.034;2023-11-19T04:43:26;16.95;;;10.10;;
83127;SDS011;73148;50.988;11.034;2023-11-19T04:45:53;17.00;;;10.45;;
83127;SDS011;73148;50.988;11.034;2023-11-19T04:48:18;17.77;;;10.70;;
83127;SDS011;73148;50.988;11.034;2023-11-19T04:50:44;16.83;;;10.07;;
83127;SDS011;73148;50.988;11.034;2023-11-19T04:53:09;17.17;;;10.27;;
83127;SDS011;73148;50.988;11.034;2023-11-19T04:55:35;16.63;;;10.38;;
83127;SDS011;73148;50.988;11.034;2023-11-19T04:58:00;17.43;;;10.33;;
83127;SDS011;73148;50.988;11.034;2023-11-19T05:00:25;17.25;;;10.15;;
83127;SDS011;73148;50.988;11.034;2023-11-19T05:02:52;17.88;;;10.88;;
83127;SDS011;73148;50.988;11.034;2023-11-19T05:05:18;17.30;;;10.40;;
83127;SDS011;73148;50.988;11.034;2023-11-19T05:07:43;16.08;;;9.55;;
83127;SDS011;73148;50.988;11.034;2023-11-19T05:10:09;17.65;;;10.50;;
83127;SDS011;73148;50.988;11.034;2023-11-19T05:12:34;18.42;;;10.90;;
83127;SDS011;73148;50.988;11.034;2023-11-19T05:15:00;18.08;;;10.60;;
83127;SDS011;73148;50.988;11.034;2023-11-19T05:17:25;19.23;;;11.02;;
83127;SDS011;73148;50.988;11.034;2023-11-19T05:19:52;17.88;;;10.43;;
83127;SDS011;73148;50.988;11.034;2023-11-19T05:22:18;16.15;;;9.77;;
83127;SDS011;73148;50.988;11.034;2023-11-19T05:24:43;16.48;;;9.60;;
83127;SDS011;73148;50.988;11.034;2023-11-19T05:27:09;18.75;;;10.48;;
83127;SDS011;73148;50.988;11.034;2023-11-19T05:29:36;17.15;;;9.80;;
83127;SDS011;73148;50.988;11.034;2023-11-19T05:32:04;14.55;;;9.50;;
83127;SDS011;73148;50.988;11.034;2023-11-19T05:34:30;16.05;;;9.65;;
83127;SDS011;73148;50.988;11.034;2023-11-19T05:36:57;16.17;;;9.93;;
83127;SDS011;73148;50.988;11.034;2023-11-19T05:39:22;17.52;;;9.90;;
83127;SDS011;73148;50.988;11.034;2023-11-19T05:41:48;14.40;;;8.43;;
83127;SDS011;73148;50.988;11.034;2023-11-19T05:44:13;15.10;;;9.95;;
83127;SDS011;73148;50.988;11.034;2023-11-19T05:46:39;15.38;;;9.68;;
83127;SDS011;73148;50.988;11.034;2023-11-19T05:49:07;15.13;;;9.30;;
83127;SDS011;73148;50.988;11.034;2023-11-19T05:51:35;15.32;;;8.85;;
83127;SDS011;73148;50.988;11.034;2023-11-19T05:54:03;14.25;;;9.13;;
83127;SDS011;73148;50.988;11.034;2023-11-19T05:56:28;13.50;;;8.60;;
83127;SDS011;73148;50.988;11.034;2023-11-19T05:58:57;14.30;;;8.35;;
83127;SDS011;73148;50.988;11.034;2023-11-19T06:01:23;14.73;;;9.30;;
83127;SDS011;73148;50.988;11.034;2023-11-19T06:03:48;15.38;;;9.07;;
83127;SDS011;73148;50.988;11.034;2023-11-19T06:06:15;13.77;;;7.75;;
83127;SDS011;73148;50.988;11.034;2023-11-19T06:08:40;14.43;;;8.60;;
83127;SDS011;73148;50.988;11.034;2023-11-19T06:11:07;14.38;;;9.00;;
83127;SDS011;73148;50.988;11.034;2023-11-19T06:13:32;14.27;;;8.68;;
83127;SDS011;73148;50.988;11.034;2023-11-19T06:15:58;14.27;;;8.18;;
83127;SDS011;73148;50.988;11.034;2023-11-19T06:18:23;13.50;;;7.75;;
83127;SDS011;73148;50.988;11.034;2023-11-19T06:20:48;13.93;;;7.68;;
83127;SDS011;73148;50.988;11.034;2023-11-19T06:23:14;12.55;;;8.02;;
83127;SDS011;73148;50.988;11.034;2023-11-19T06:25:40;15.02;;;9.25;;
83127;SDS011;73148;50.988;11.034;2023-11-19T06:28:07;12.23;;;7.80;;
83127;SDS011;73148;50.988;11.034;2023-11-19T06:30:32;13.20;;;7.50;;
83127;SDS011;73148;50.988;11.034;2023-11-19T06:32:57;12.73;;;7.63;;
83127;SDS011;73148;50.988;11.034;2023-11-19T06:35:23;12.38;;;7.47;;
83127;SDS011;73148;50.988;11.034;2023-11-19T06:37:49;12.45;;;7.65;;
83127;SDS011;73148;50.988;11.034;2023-11-19T06:40:14;12.40;;;7.93;;
83127;SDS011;73148;50.988;11.034;2023-11-19T06:42:40;12.40;;;7.53;;
83127;SDS011;73148;50.988;11.034;2023-11-19T06:45:07;12.30;;;7.10;;
83127;SDS011;73148;50.988;11.034;2023-11-19T06:47:34;12.65;;;7.50;;
83127;SDS011;73148;50.988;11.034;2023-11-19T06:49:59;12.57;;;7.13;;
83127;SDS011;73148;50.988;11.034;2023-11-19T06:52:25;13.10;;;7.72;;
83127;SDS011;73148;50.988;11.034;2023-11-19T06:54:50;12.25;;;7.25;;
83127;SDS011;73148;50.988;11.034;2023-11-19T06:57:16;12.05;;;6.57;;
83127;SDS011;73148;50.988;11.034;2023-11-19T06:59:41;11.45;;;7.15;;
83127;SDS011;73148;50.988;11.034;2023-11-19T07:02:08;9.70;;;6.07;;
83127;SDS011;73148;50.988;11.034;2023-11-19T07:04:34;13.73;;;8.20;;
83127;SDS011;73148;50.988;11.034;2023-11-19T07:06:59;12.35;;;7.50;;
83127;SDS011;73148;50.988;11.034;2023-11-19T07:09:25;11.35;;;6.45;;
83127;SDS011;73148;50.988;11.034;2023-11-19T07:11:50;11.60;;;6.78;;
83127;SDS011;73148;50.988;11.034;2023-11-19T07:14:17;10.70;;;6.30;;
83127;SDS011;73148;50.988;11.034;2023-11-19T07:16:43;11.23;;;6.68;;
83127;SDS011;73148;50.988;11.034;2023-11-19T07:19:10;9.95;;;6.55;;
83127;SDS011;73148;50.988;11.034;2023-11-19T07:21:35;10.70;;;6.03;;
83127;SDS011;73148;50.988;11.034;2023-11-19T07:24:04;11.40;;;6.38;;
83127;SDS011;73148;50.988;11.034;2023-11-19T07:26:31;12.45;;;6.75;;
83127;SDS011;73148;50.988;11.034;2023-11-19T07:28:56;9.88;;;5.82;;
83127;SDS011;73148;50.988;11.034;2023-11-19T07:31:22;11.25;;;6.45;;
83127;SDS011;73148;50.988;11.034;2023-11-19T07:33:48;11.55;;;6.72;;
83127;SDS011;73148;50.988;11.034;2023-11-19T07:36:15;11.70;;;6.32;;
83127;SDS011;73148;50.988;11.034;2023-11-19T07:38:41;10.50;;;5.93;;
83127;SDS011;73148;50.988;11.034;2023-11-19T07:41:07;10.60;;;6.07;;
83127;SDS011;73148;50.988;11.034;2023-11-19T07:43:38;11.50;;;6.80;;
83127;SDS011;73148;50.988;11.034;2023-11-19T07:46:04;11.43;;;6.40;;
83127;SDS011;73148;50.988;11.034;2023-11-19T07:48:32;9.75;;;5.95;;
83127;SDS011;73148;50.988;11.034;2023-11-19T07:50:58;10.65;;;5.97;;
83127;SDS011;73148;50.988;11.034;2023-11-19T07:53:24;10.60;;;6.35;;
83127;SDS011;73148;50.988;11.034;2023-11-19T07:55:50;9.95;;;5.90;;
83127;SDS011;73148;50.988;11.034;2023-11-19T07:58:15;11.40;;;6.53;;
83127;SDS011;73148;50.988;11.034;2023-11-19T08:00:41;10.52;;;6.50;;
83127;SDS011;73148;50.988;11.034;2023-11-19T08:03:06;10.90;;;6.30;;
83127;SDS011;73148;50.988;11.034;2023-11-19T08:05:31;11.02;;;6.32;;
83127;SDS011;73148;50.988;11.034;2023-11-19T08:07:57;9.88;;;5.60;;
83127;SDS011;73148;50.988;11.034;2023-11-19T08:10:24;11.25;;;6.55;;
83127;SDS011;73148;50.988;11.034;2023-11-19T08:12:50;10.82;;;6.20;;
83127;SDS011;73148;50.988;11.034;2023-11-19T08:15:15;10.70;;;6.28;;
83127;SDS011;73148;50.988;11.034;2023-11-19T08:17:41;11.05;;;6.35;;
83127;SDS011;73148;50.988;11.034;2023-11-19T08:20:07;9.80;;;6.05;;
83127;SDS011;73148;50.988;11.034;2023-11-19T08:22:35;10.90;;;6.57;;
83127;SDS011;73148;50.988;11.034;2023-11-19T08:25:00;10.60;;;6.57;;
83127;SDS011;73148;50.988;11.034;2023-11-19T08:27:27;10.17;;;6.20;;
83127;SDS011;73148;50.988;11.034;2023-11-19T08:29:53;10.73;;;6.65;;
83127;SDS011;73148;50.988;11.034;2023-11-19T08:32:18;10.52;;;6.20;;
83127;SDS011;73148;50.988;11.034;2023-11-19T08:34:44;9.95;;;5.82;;
83127;SDS011;73148;50.988;11.034;2023-11-19T08:37:09;10.93;;;6.18;;
83127;SDS011;73148;50.988;11.034;2023-11-19T08:39:35;11.13;;;6.67;;
83127;SDS011;73148;50.988;11.034;2023-11-19T08:42:02;10.10;;;6.25;;
83127;SDS011;73148;50.988;11.034;2023-11-19T08:44:29;10.27;;;6.00;;
83127;SDS011;73148;50.988;11.034;2023-11-19T08:46:55;9.82;;;5.63;;
83127;SDS011;73148;50.988;11.034;2023-11-19T08:49:20;10.02;;;5.90;;
83127;SDS011;73148;50.988;11.034;2023-11-19T08:51:46;9.93;;;6.00;;
83127;SDS011;73148;50.988;11.034;2023-11-19T08:54:11;10.32;;;6.30;;
83127;SDS011;73148;50.988;11.034;2023-11-19T08:56:38;9.98;;;5.63;;
83127;SDS011;73148;50.988;11.034;2023-11-19T08:59:04;11.05;;;6.57;;
83127;SDS011;73148;50.988;11.034;2023-11-19T09:01:31;10.15;;;6.78;;
83127;SDS011;73148;50.988;11.034;2023-11-19T09:03:56;10.35;;;6.28;;
83127;SDS011;73148;50.988;11.034;2023-11-19T09:06:22;11.70;;;6.50;;
83127;SDS011;73148;50.988;11.034;2023-11-19T09:08:48;11.18;;;6.40;;
83127;SDS011;73148;50.988;11.034;2023-11-19T09:11:13;10.73;;;6.22;;
83127;SDS011;73148;50.988;11.034;2023-11-19T09:13:38;10.13;;;6.35;;
83127;SDS011;73148;50.988;11.034;2023-11-19T09:16:04;10.88;;;6.20;;
83127;SDS011;73148;50.988;11.034;2023-11-19T09:18:31;11.77;;;6.72;;
83127;SDS011;73148;50.988;11.034;2023-11-19T09:20:57;10.20;;;6.10;;
83127;SDS011;73148;50.988;11.034;2023-11-19T09:23:22;10.85;;;6.28;;
83127;SDS011;73148;50.988;11.034;2023-11-19T09:25:49;11.70;;;6.78;;
83127;SDS011;73148;50.988;11.034;2023-11-19T09:28:15;10.40;;;6.10;;
83127;SDS011;73148;50.988;11.034;2023-11-19T09:30:40;11.32;;;6.63;;
83127;SDS011;73148;50.988;11.034;2023-11-19T09:33:05;11.02;;;6.10;;
83127;SDS011;73148;50.988;11.034;2023-11-19T09:35:32;11.20;;;6.35;;
83127;SDS011;73148;50.988;11.034;2023-11-19T09:37:58;12.00;;;6.45;;
83127;SDS011;73148;50.988;11.034;2023-11-19T09:40:24;10.55;;;5.97;;
83127;SDS011;73148;50.988;11.034;2023-11-19T09:42:49;11.85;;;6.95;;
83127;SDS011;73148;50.988;11.034;2023-11-19T09:45:16;10.30;;;5.90;;
83127;SDS011;73148;50.988;11.034;2023-11-19T09:47:46;9.75;;;5.82;;
83127;SDS011;73148;50.988;11.034;2023-11-19T09:50:13;9.57;;;6.07;;
83127;SDS011;73148;50.988;11.034;2023-11-19T09:52:42;9.98;;;5.90;;
83127;SDS011;73148;50.988;11.034;2023-11-19T09:55:08;9.88;;;5.78;;
83127;SDS011;73148;50.988;11.034;2023-11-19T09:57:34;9.40;;;5.32;;
83127;SDS011;73148;50.988;11.034;2023-11-19T10:00:02;10.77;;;6.30;;
83127;SDS011;73148;50.988;11.034;2023-11-19T10:02:29;10.00;;;5.95;;
83127;SDS011;73148;50.988;11.034;2023-11-19T10:04:58;10.20;;;6.18;;
83127;SDS011;73148;50.988;11.034;2023-11-19T10:07:24;9.27;;;5.65;;
83127;SDS011;73148;50.988;11.034;2023-11-19T10:09:51;9.30;;;5.68;;
83127;SDS011;73148;50.988;11.034;2023-11-19T10:12:17;9.95;;;5.88;;
83127;SDS011;73148;50.988;11.034;2023-11-19T10:14:42;9.80;;;5.75;;
83127;SDS011;73148;50.988;11.034;2023-11-19T10:17:08;9.95;;;6.18;;
83127;SDS011;73148;50.988;11.034;2023-11-19T10:19:34;9.98;;;6.18;;
83127;SDS011;73148;50.988;11.034;2023-11-19T10:24:31;9.27;;;5.13;;
83127;SDS011;73148;50.988;11.034;2023-11-19T10:26:58;10.52;;;5.95;;
83127;SDS011;73148;50.988;11.034;2023-11-19T10:29:24;9.35;;;5.85;;
83127;SDS011;73148;50.988;11.034;2023-11-19T10:31:55;11.82;;;5.97;;
83127;SDS011;73148;50.988;11.034;2023-11-19T10:34:24;12.80;;;5.95;;
83127;SDS011;73148;50.988;11.034;2023-11-19T10:36:50;9.50;;;5.45;;
83127;SDS011;73148;50.988;11.034;2023-11-19T10:39:16;9.63;;;5.97;;
83127;SDS011;73148;50.988;11.034;2023-11-19T10:41:43;10.52;;;5.45;;
83127;SDS011;73148;50.988;11.034;2023-11-19T10:44:10;10.30;;;5.50;;
83127;SDS011;73148;50.988;11.034;2023-11-19T10:46:39;9.90;;;5.25;;
83127;SDS011;73148;50.988;11.034;2023-11-19T10:49:05;9.05;;;5.32;;
83127;SDS011;73148;50.988;11.034;2023-11-19T10:51:31;10.27;;;5.53;;
83127;SDS011;73148;50.988;11.034;2023-11-19T10:53:57;8.60;;;5.35;;
83127;SDS011;73148;50.988;11.034;2023-11-19T10:56:27;8.77;;;5.20;;
83127;SDS011;73148;50.988;11.034;2023-11-19T10:58:55;9.32;;;5.18;;
83127;SDS011;73148;50.988;11.034;2023-11-19T11:01:26;9.57;;;5.35;;
83127;SDS011;73148;50.988;11.034;2023-11-19T11:03:58;10.43;;;5.65;;
83127;SDS011;73148;50.988;11.034;2023-11-19T11:06:25;8.13;;;5.07;;
83127;SDS011;73148;50.988;11.034;2023-11-19T11:08:52;9.38;;;5.10;;
83127;SDS011;73148;50.988;11.034;2023-11-19T11:11:19;8.43;;;4.88;;
83127;SDS011;73148;50.988;11.034;2023-11-19T11:13:49;10.18;;;5.65;;
83127;SDS011;73148;50.988;11.034;2023-11-19T11:16:15;10.52;;;5.63;;
83127;SDS011;73148;50.988;11.034;2023-11-19T11:18:45;9.45;;;5.45;;
83127;SDS011;73148;50.988;11.034;2023-11-19T11:21:15;8.57;;;5.00;;
83127;SDS011;73148;50.988;11.034;2023-11-19T11:23:55;8.88;;;5.20;;
83127;SDS011;73148;50.988;11.034;2023-11-19T11:29:34;8.35;;;4.80;;
83127;SDS011;73148;50.988;11.034;2023-11-19T11:32:05;8.80;;;4.88;;
83127;SDS011;73148;50.988;11.034;2023-11-19T11:34:47;9.73;;;5.35;;
83127;SDS011;73148;50.988;11.034;2023-11-19T11:37:25;9.18;;;5.10;;
83127;SDS011;73148;50.988;11.034;2023-11-19T11:39:57;10.95;;;5.80;;
83127;SDS011;73148;50.988;11.034;2023-11-19T11:42:34;6.90;;;4.25;;
83127;SDS011;73148;50.988;11.034;2023-11-19T11:45:01;8.43;;;4.82;;
83127;SDS011;73148;50.988;11.034;2023-11-19T11:50:34;7.68;;;4.70;;
83127;SDS011;73148;50.988;11.034;2023-11-19T11:53:13;8.40;;;4.80;;
83127;SDS011;73148;50.988;11.034;2023-11-19T11:55:52;7.68;;;4.75;;
83127;SDS011;73148;50.988;11.034;2023-11-19T11:58:25;9.70;;;5.30;;
83127;SDS011;73148;50.988;11.034;2023-11-19T12:00:51;9.68;;;5.30;;
83127;SDS011;73148;50.988;11.034;2023-11-19T12:03:19;8.80;;;4.72;;
83127;SDS011;73148;50.988;11.034;2023-11-19T12:05:48;8.98;;;5.07;;
83127;SDS011;73148;50.988;11.034;2023-11-19T12:08:14;8.40;;;4.95;;
83127;SDS011;73148;50.988;11.034;2023-11-19T12:10:46;9.65;;;5.38;;
83127;SDS011;73148;50.988;11.034;2023-11-19T12:13:13;8.30;;;5.10;;
83127;SDS011;73148;50.988;11.034;2023-11-19T12:18:34;9.38;;;5.13;;
83127;SDS011;73148;50.988;11.034;2023-11-19T12:21:02;7.20;;;4.43;;
83127;SDS011;73148;50.988;11.034;2023-11-19T12:23:28;8.20;;;4.72;;
83127;SDS011;73148;50.988;11.034;2023-11-19T12:25:54;8.80;;;5.18;;
83127;SDS011;73148;50.988;11.034;2023-11-19T12:28:20;10.10;;;5.22;;
83127;SDS011;73148;50.988;11.034;2023-11-19T12:30:46;9.50;;;5.22;;
83127;SDS011;73148;50.988;11.034;2023-11-19T12:33:13;9.02;;;5.18;;
83127;SDS011;73148;50.988;11.034;2023-11-19T12:35:39;9.23;;;5.10;;
83127;SDS011;73148;50.988;11.034;2023-11-19T12:38:06;8.32;;;4.97;;
83127;SDS011;73148;50.988;11.034;2023-11-19T12:40:32;9.05;;;4.93;;
83127;SDS011;73148;50.988;11.034;2023-11-19T12:42:57;8.85;;;5.25;;
83127;SDS011;73148;50.988;11.034;2023-11-19T12:45:24;11.05;;;5.45;;
83127;SDS011;73148;50.988;11.034;2023-11-19T12:47:49;8.18;;;4.53;;
83127;SDS011;73148;50.988;11.034;2023-11-19T12:50:28;10.93;;;5.20;;
83127;SDS011;73148;50.988;11.034;2023-11-19T12:52:57;8.40;;;5.03;;
83127;SDS011;73148;50.988;11.034;2023-11-19T12:55:25;9.00;;;5.15;;
83127;SDS011;73148;50.988;11.034;2023-11-19T12:57:51;8.00;;;5.30;;
83127;SDS011;73148;50.988;11.034;2023-11-19T13:00:20;8.25;;;5.13;;
83127;SDS011;73148;50.988;11.034;2023-11-19T13:02:47;8.65;;;5.00;;
83127;SDS011;73148;50.988;11.034;2023-11-19T13:05:23;9.57;;;5.72;;
83127;SDS011;73148;50.988;11.034;2023-11-19T13:07:49;9.32;;;5.20;;
83127;SDS011;73148;50.988;11.034;2023-11-19T13:10:15;8.73;;;5.20;;
83127;SDS011;73148;50.988;11.034;2023-11-19T13:12:42;9.02;;;5.22;;
83127;SDS011;73148;50.988;11.034;2023-11-19T13:15:21;8.25;;;4.85;;
83127;SDS011;73148;50.988;11.034;2023-11-19T13:17:48;9.48;;;5.30;;
83127;SDS011;73148;50.988;11.034;2023-11-19T13:20:14;10.43;;;5.97;;
83127;SDS011;73148;50.988;11.034;2023-11-19T13:22:53;8.43;;;5.20;;
83127;SDS011;73148;50.988;11.034;2023-11-19T13:25:19;9.68;;;5.22;;
83127;SDS011;73148;50.988;11.034;2023-11-19T13:27:46;8.73;;;5.45;;
83127;SDS011;73148;50.988;11.034;2023-11-19T13:30:12;8.85;;;5.40;;
83127;SDS011;73148;50.988;11.034;2023-11-19T13:32:38;9.00;;;5.13;;
83127;SDS011;73148;50.988;11.034;2023-11-19T13:35:04;9.90;;;5.65;;
83127;SDS011;73148;50.988;11.034;2023-11-19T13:37:30;11.13;;;5.95;;
83127;SDS011;73148;50.988;11.034;2023-11-19T13:39:56;10.10;;;5.47;;
83127;SDS011;73148;50.988;11.034;2023-11-19T13:42:21;8.65;;;5.55;;
83127;SDS011;73148;50.988;11.034;2023-11-19T13:44:48;10.63;;;6.10;;
83127;SDS011;73148;50.988;11.034;2023-11-19T13:47:13;8.93;;;5.15;;
83127;SDS011;73148;50.988;11.034;2023-11-19T13:49:39;11.60;;;5.65;;
83127;SDS011;73148;50.988;11.034;2023-11-19T13:52:05;10.48;;;6.00;;
83127;SDS011;73148;50.988;11.034;2023-11-19T13:54:30;10.55;;;5.90;;
83127;SDS011;73148;50.988;11.034;2023-11-19T13:56:56;9.93;;;5.70;;
83127;SDS011;73148;50.988;11.034;2023-11-19T13:59:23;8.95;;;5.38;;
83127;SDS011;73148;50.988;11.034;2023-11-19T14:01:50;10.82;;;6.10;;
83127;SDS011;73148;50.988;11.034;2023-11-19T14:04:15;9.68;;;5.55;;
83127;SDS011;73148;50.988;11.034;2023-11-19T14:06:40;9.63;;;5.75;;
83127;SDS011;73148;50.988;11.034;2023-11-19T14:09:06;9.73;;;6.10;;
83127;SDS011;73148;50.988;11.034;2023-11-19T14:11:32;10.45;;;6.47;;
83127;SDS011;73148;50.988;11.034;2023-11-19T14:13:57;10.93;;;6.30;;
83127;SDS011;73148;50.988;11.034;2023-11-19T14:16:25;10.48;;;6.00;;
83127;SDS011;73148;50.988;11.034;2023-11-19T14:18:52;9.02;;;5.88;;
83127;SDS011;73148;50.988;11.034;2023-11-19T14:21:18;11.10;;;6.28;;
83127;SDS011;73148;50.988;11.034;2023-11-19T14:23:43;11.77;;;7.05;;
83127;SDS011;73148;50.988;11.034;2023-11-19T14:26:09;11.88;;;6.53;;
83127;SDS011;73148;50.988;11.034;2023-11-19T14:28:35;11.32;;;6.70;;
83127;SDS011;73148;50.988;11.034;2023-11-19T14:31:00;11.27;;;6.57;;
83127;SDS011;73148;50.988;11.034;2023-11-19T14:33:26;11.45;;;7.28;;